sensor_id;sensor_type;location;lat;lon;timestamp;pressure;altitude;pressure_sealevel;temperature;humidity
53960;BME280;39866;48.638;-2.020;2022-12-07T00:01:44;102030.59;;;8.32;62.41
53960;BME280;39866;48.638;-2.020;2022-12-07T00:04:13;102032.41;;;8.39;62.70
53960;BME280;39866;48.638;-2.020;2022-12-07T00:06:41;102036.84;;;8.40;62.77
53960;BME280;39866;48.638;-2.020;2022-12-07T00:09:12;102028.91;;;8.42;62.38
53960;BME280;39866;48.638;-2.020;2022-12-07T00:11:37;102025.34;;;8.40;62.66
53960;BME280;39866;48.638;-2.020;2022-12-07T00:14:06;102030.66;;;8.44;62.95
53960;BME280;39866;48.638;-2.020;2022-12-07T00:16:33;102029.78;;;8.52;62.97
53960;BME280;39866;48.638;-2.020;2022-12-07T00:18:59;102032.44;;;8.55;62.79
53960;BME280;39866;48.638;-2.020;2022-12-07T00:21:28;102032.41;;;8.56;62.77
53960;BME280;39866;48.638;-2.020;2022-12-07T00:23:55;102026.22;;;8.56;62.69
53960;BME280;39866;48.638;-2.020;2022-12-07T00:26:26;102035.09;;;8.64;62.64
53960;BME280;39866;48.638;-2.020;2022-12-07T00:28:54;102035.97;;;8.67;62.49
53960;BME280;39866;48.638;-2.020;2022-12-07T00:31:22;102028.00;;;8.69;62.98
53960;BME280;39866;48.638;-2.020;2022-12-07T00:33:48;102026.25;;;8.74;62.80
53960;BME280;39866;48.638;-2.020;2022-12-07T00:36:16;102026.22;;;8.76;62.49
53960;BME280;39866;48.638;-2.020;2022-12-07T00:38:42;102025.34;;;8.77;62.86
53960;BME280;39866;48.638;-2.020;2022-12-07T00:41:11;102034.19;;;8.76;62.80
53960;BME280;39866;48.638;-2.020;2022-12-07T00:43:37;102029.78;;;8.79;62.71
53960;BME280;39866;48.638;-2.020;2022-12-07T00:46:03;102031.53;;;8.77;63.26
53960;BME280;39866;48.638;-2.020;2022-12-07T00:48:28;102027.13;;;8.75;63.52
53960;BME280;39866;48.638;-2.020;2022-12-07T00:50:54;102028.00;;;8.75;63.45
53960;BME280;39866;48.638;-2.020;2022-12-07T00:53:19;102021.81;;;8.65;63.47
53960;BME280;39866;48.638;-2.020;2022-12-07T00:55:45;102027.13;;;8.67;63.71
53960;BME280;39866;48.638;-2.020;2022-12-07T00:58:11;102024.47;;;8.53;63.58
53960;BME280;39866;48.638;-2.020;2022-12-07T01:00:38;102028.00;;;8.63;64.09
53960;BME280;39866;48.638;-2.020;2022-12-07T01:03:04;102028.00;;;8.75;63.48
53960;BME280;39866;48.638;-2.020;2022-12-07T01:05:30;102017.38;;;8.69;63.82
53960;BME280;39866;48.638;-2.020;2022-12-07T01:07:55;102019.16;;;8.76;63.59
53960;BME280;39866;48.638;-2.020;2022-12-07T01:10:20;102025.34;;;8.71;63.61
53960;BME280;39866;48.638;-2.020;2022-12-07T01:12:46;102017.38;;;8.78;63.78
53960;BME280;39866;48.638;-2.020;2022-12-07T01:15:11;102021.81;;;8.78;64.25
53960;BME280;39866;48.638;-2.020;2022-12-07T01:17:36;102012.94;;;8.83;63.62
53960;BME280;39866;48.638;-2.020;2022-12-07T01:20:03;102015.59;;;8.88;63.61
53960;BME280;39866;48.638;-2.020;2022-12-07T01:22:29;102008.50;;;8.91;63.59
53960;BME280;39866;48.638;-2.020;2022-12-07T01:24:54;102014.69;;;8.89;63.36
53960;BME280;39866;48.638;-2.020;2022-12-07T01:27:19;102017.38;;;8.87;63.53
53960;BME280;39866;48.638;-2.020;2022-12-07T01:29:45;102012.94;;;8.92;63.36
53960;BME280;39866;48.638;-2.020;2022-12-07T01:32:10;102010.28;;;8.96;63.56
53960;BME280;39866;48.638;-2.020;2022-12-07T01:34:36;102001.41;;;8.93;63.55
53960;BME280;39866;48.638;-2.020;2022-12-07T01:37:01;101998.75;;;8.93;63.75
53960;BME280;39866;48.638;-2.020;2022-12-07T01:39:27;102004.97;;;8.89;63.68
53960;BME280;39866;48.638;-2.020;2022-12-07T01:41:53;102001.41;;;8.89;63.29
53960;BME280;39866;48.638;-2.020;2022-12-07T01:46:51;102007.63;;;8.94;63.20
53960;BME280;39866;48.638;-2.020;2022-12-07T01:49:33;102002.31;;;8.92;63.16
53960;BME280;39866;48.638;-2.020;2022-12-07T01:52:28;101996.13;;;8.87;63.43
53960;BME280;39866;48.638;-2.020;2022-12-07T01:55:08;101985.47;;;8.89;63.62
53960;BME280;39866;48.638;-2.020;2022-12-07T01:57:38;101988.13;;;8.93;63.29
53960;BME280;39866;48.638;-2.020;2022-12-07T02:00:06;101981.91;;;8.98;63.31
53960;BME280;39866;48.638;-2.020;2022-12-07T02:02:40;101994.34;;;8.92;63.42
53960;BME280;39866;48.638;-2.020;2022-12-07T02:05:07;101995.22;;;8.95;63.61
53960;BME280;39866;48.638;-2.020;2022-12-07T02:07:34;101989.03;;;8.96;63.22
53960;BME280;39866;48.638;-2.020;2022-12-07T02:10:14;102004.06;;;8.97;63.28
53960;BME280;39866;48.638;-2.020;2022-12-07T02:12:40;101997.88;;;9.01;63.21
53960;BME280;39866;48.638;-2.020;2022-12-07T02:15:06;101998.75;;;9.03;63.20
53960;BME280;39866;48.638;-2.020;2022-12-07T02:18:25;101999.63;;;9.03;63.06
53960;BME280;39866;48.638;-2.020;2022-12-07T02:23:27;102007.59;;;9.03;63.08
53960;BME280;39866;48.638;-2.020;2022-12-07T02:26:09;102004.06;;;9.07;62.92
53960;BME280;39866;48.638;-2.020;2022-12-07T02:29:21;102007.59;;;9.11;62.58
53960;BME280;39866;48.638;-2.020;2022-12-07T02:32:16;102008.47;;;9.10;62.74
53960;BME280;39866;48.638;-2.020;2022-12-07T02:37:27;102003.16;;;9.11;62.46
53960;BME280;39866;48.638;-2.020;2022-12-07T02:39:59;102003.16;;;9.11;62.38
53960;BME280;39866;48.638;-2.020;2022-12-07T02:42:35;102002.28;;;9.12;62.59
53960;BME280;39866;48.638;-2.020;2022-12-07T02:45:02;101999.63;;;9.11;62.55
53960;BME280;39866;48.638;-2.020;2022-12-07T02:47:29;102004.94;;;9.12;62.60
53960;BME280;39866;48.638;-2.020;2022-12-07T02:49:56;101995.19;;;9.11;62.49
53960;BME280;39866;48.638;-2.020;2022-12-07T02:52:22;101989.00;;;9.11;62.41
53960;BME280;39866;48.638;-2.020;2022-12-07T02:54:47;101987.22;;;9.04;62.48
53960;BME280;39866;48.638;-2.020;2022-12-07T02:58:16;101989.88;;;8.98;62.57
53960;BME280;39866;48.638;-2.020;2022-12-07T03:00:19;101989.03;;;8.92;62.43
53960;BME280;39866;48.638;-2.020;2022-12-07T03:02:55;101993.44;;;8.97;62.39
53960;BME280;39866;48.638;-2.020;2022-12-07T03:11:04;101998.75;;;8.97;62.67
53960;BME280;39866;48.638;-2.020;2022-12-07T03:13:39;101989.03;;;8.96;62.72
53960;BME280;39866;48.638;-2.020;2022-12-07T03:16:18;101998.75;;;9.04;62.59
53960;BME280;39866;48.638;-2.020;2022-12-07T03:18:51;101998.75;;;9.07;62.13
53960;BME280;39866;48.638;-2.020;2022-12-07T03:21:21;102004.03;;;9.12;61.93
53960;BME280;39866;48.638;-2.020;2022-12-07T03:23:52;102006.69;;;9.13;61.90
53960;BME280;39866;48.638;-2.020;2022-12-07T03:26:21;102005.81;;;9.10;62.15
53960;BME280;39866;48.638;-2.020;2022-12-07T03:28:52;102005.84;;;9.04;62.53
53960;BME280;39866;48.638;-2.020;2022-12-07T03:31:28;102010.25;;;9.09;62.33
53960;BME280;39866;48.638;-2.020;2022-12-07T03:34:18;102008.47;;;9.13;62.19
53960;BME280;39866;48.638;-2.020;2022-12-07T03:37:08;102010.25;;;9.05;62.56
53960;BME280;39866;48.638;-2.020;2022-12-07T03:39:41;102012.00;;;9.06;62.56
53960;BME280;39866;48.638;-2.020;2022-12-07T03:42:10;102009.34;;;9.09;62.38
53960;BME280;39866;48.638;-2.020;2022-12-07T03:44:36;102005.81;;;9.08;62.47
53960;BME280;39866;48.638;-2.020;2022-12-07T03:49:49;102010.25;;;9.05;62.53
53960;BME280;39866;48.638;-2.020;2022-12-07T03:52:39;102005.84;;;9.07;62.52
53960;BME280;39866;48.638;-2.020;2022-12-07T03:55:09;102007.59;;;9.05;62.53
53960;BME280;39866;48.638;-2.020;2022-12-07T03:57:37;102004.09;;;8.98;62.47
53960;BME280;39866;48.638;-2.020;2022-12-07T04:00:06;102003.19;;;8.93;63.08
53960;BME280;39866;48.638;-2.020;2022-12-07T04:02:32;102004.97;;;8.99;62.49
53960;BME280;39866;48.638;-2.020;2022-12-07T04:04:58;102003.19;;;9.04;62.30
53960;BME280;39866;48.638;-2.020;2022-12-07T04:07:23;101999.63;;;9.02;62.37
53960;BME280;39866;48.638;-2.020;2022-12-07T04:09:49;101999.63;;;9.05;62.28
53960;BME280;39866;48.638;-2.020;2022-12-07T04:12:14;101993.41;;;9.06;62.08
53960;BME280;39866;48.638;-2.020;2022-12-07T04:14:39;101989.88;;;9.01;62.72
53960;BME280;39866;48.638;-2.020;2022-12-07T04:17:05;101982.81;;;9.01;62.71
53960;BME280;39866;48.638;-2.020;2022-12-07T04:19:33;101980.16;;;9.03;62.53
53960;BME280;39866;48.638;-2.020;2022-12-07T04:22:00;101976.59;;;9.01;62.77
53960;BME280;39866;48.638;-2.020;2022-12-07T04:24:26;101980.16;;;9.00;62.49
53960;BME280;39866;48.638;-2.020;2022-12-07T04:26:52;101974.88;;;8.98;62.64
53960;BME280;39866;48.638;-2.020;2022-12-07T04:29:18;101969.56;;;8.95;62.24
53960;BME280;39866;48.638;-2.020;2022-12-07T04:31:44;101968.66;;;8.91;62.37
53960;BME280;39866;48.638;-2.020;2022-12-07T04:34:10;101964.25;;;8.87;62.70
53960;BME280;39866;48.638;-2.020;2022-12-07T04:36:37;101960.69;;;8.85;63.06
53960;BME280;39866;48.638;-2.020;2022-12-07T04:39:03;101963.34;;;8.91;62.93
53960;BME280;39866;48.638;-2.020;2022-12-07T04:41:28;101961.59;;;8.90;62.46
53960;BME280;39866;48.638;-2.020;2022-12-07T04:43:58;101966.00;;;8.88;62.75
53960;BME280;39866;48.638;-2.020;2022-12-07T04:46:26;101969.56;;;8.87;62.70
53960;BME280;39866;48.638;-2.020;2022-12-07T04:48:52;101969.56;;;8.87;62.90
53960;BME280;39866;48.638;-2.020;2022-12-07T04:51:21;101966.00;;;8.88;62.48
53960;BME280;39866;48.638;-2.020;2022-12-07T04:53:47;101958.06;;;8.79;62.67
53960;BME280;39866;48.638;-2.020;2022-12-07T04:56:14;101966.94;;;8.86;63.08
53960;BME280;39866;48.638;-2.020;2022-12-07T04:58:39;101965.16;;;8.79;63.09
53960;BME280;39866;48.638;-2.020;2022-12-07T05:01:04;101966.91;;;8.77;63.41
53960;BME280;39866;48.638;-2.020;2022-12-07T05:03:30;101963.41;;;8.75;63.21
53960;BME280;39866;48.638;-2.020;2022-12-07T05:05:55;101977.56;;;8.78;63.25
53960;BME280;39866;48.638;-2.020;2022-12-07T05:08:20;101969.56;;;8.80;63.14
53960;BME280;39866;48.638;-2.020;2022-12-07T05:10:48;101962.50;;;8.79;62.90
53960;BME280;39866;48.638;-2.020;2022-12-07T05:13:14;101955.41;;;8.73;63.10
53960;BME280;39866;48.638;-2.020;2022-12-07T05:15:39;101953.66;;;8.71;63.35
53960;BME280;39866;48.638;-2.020;2022-12-07T05:18:05;101948.34;;;8.67;63.31
53960;BME280;39866;48.638;-2.020;2022-12-07T05:20:30;101958.97;;;8.67;63.52
53960;BME280;39866;48.638;-2.020;2022-12-07T05:22:56;101960.75;;;8.67;63.28
53960;BME280;39866;48.638;-2.020;2022-12-07T05:25:23;101961.63;;;8.69;63.01
53960;BME280;39866;48.638;-2.020;2022-12-07T05:27:48;101951.00;;;8.67;63.41
53960;BME280;39866;48.638;-2.020;2022-12-07T05:30:14;101966.03;;;8.73;63.12
53960;BME280;39866;48.638;-2.020;2022-12-07T05:32:39;101961.63;;;8.72;63.29
53960;BME280;39866;48.638;-2.020;2022-12-07T05:35:05;101956.34;;;8.66;63.05
53960;BME280;39866;48.638;-2.020;2022-12-07T05:37:30;101959.00;;;8.66;63.14
53960;BME280;39866;48.638;-2.020;2022-12-07T05:39:56;101952.78;;;8.64;63.14
53960;BME280;39866;48.638;-2.020;2022-12-07T05:42:22;101951.91;;;8.59;62.96
53960;BME280;39866;48.638;-2.020;2022-12-07T05:44:47;101948.38;;;8.51;63.25
53960;BME280;39866;48.638;-2.020;2022-12-07T05:47:14;101936.00;;;8.50;63.11
53960;BME280;39866;48.638;-2.020;2022-12-07T05:49:40;101951.03;;;8.51;63.38
53960;BME280;39866;48.638;-2.020;2022-12-07T05:52:05;101958.97;;;8.52;63.39
53960;BME280;39866;48.638;-2.020;2022-12-07T05:54:31;101948.38;;;8.52;63.56
53960;BME280;39866;48.638;-2.020;2022-12-07T05:56:57;101951.91;;;8.53;63.05
53960;BME280;39866;48.638;-2.020;2022-12-07T05:59:22;101951.91;;;8.56;62.79
53960;BME280;39866;48.638;-2.020;2022-12-07T06:02:00;101953.69;;;8.58;63.27
53960;BME280;39866;48.638;-2.020;2022-12-07T06:04:28;101955.44;;;8.59;63.41
53960;BME280;39866;48.638;-2.020;2022-12-07T06:06:54;101943.94;;;8.62;63.19
53960;BME280;39866;48.638;-2.020;2022-12-07T06:09:21;101945.72;;;8.66;63.17
53960;BME280;39866;48.638;-2.020;2022-12-07T06:11:47;101941.28;;;8.68;63.36
53960;BME280;39866;48.638;-2.020;2022-12-07T06:14:31;101938.63;;;8.70;63.22
53960;BME280;39866;48.638;-2.020;2022-12-07T06:16:58;101937.72;;;8.72;62.60
53960;BME280;39866;48.638;-2.020;2022-12-07T06:19:23;101945.69;;;8.71;62.83
53960;BME280;39866;48.638;-2.020;2022-12-07T06:21:49;101945.69;;;8.69;62.65
53960;BME280;39866;48.638;-2.020;2022-12-07T06:24:15;101950.13;;;8.64;62.87
53960;BME280;39866;48.638;-2.020;2022-12-07T06:26:41;101955.44;;;8.62;62.47
53960;BME280;39866;48.638;-2.020;2022-12-07T06:29:09;101951.03;;;8.63;62.67
53960;BME280;39866;48.638;-2.020;2022-12-07T06:31:35;101948.34;;;8.57;62.60
53960;BME280;39866;48.638;-2.020;2022-12-07T06:34:05;101954.56;;;8.59;63.41
53960;BME280;39866;48.638;-2.020;2022-12-07T06:36:30;101951.91;;;8.59;62.99
53960;BME280;39866;48.638;-2.020;2022-12-07T06:38:56;101951.91;;;8.54;62.96
53960;BME280;39866;48.638;-2.020;2022-12-07T06:41:22;101957.22;;;8.51;62.67
53960;BME280;39866;48.638;-2.020;2022-12-07T06:43:48;101955.44;;;8.49;62.55
53960;BME280;39866;48.638;-2.020;2022-12-07T06:46:14;101960.78;;;8.50;62.43
53960;BME280;39866;48.638;-2.020;2022-12-07T06:48:40;101959.88;;;8.47;62.70
53960;BME280;39866;48.638;-2.020;2022-12-07T06:51:05;101959.00;;;8.46;62.54
53960;BME280;39866;48.638;-2.020;2022-12-07T06:53:31;101957.25;;;8.45;62.59
53960;BME280;39866;48.638;-2.020;2022-12-07T06:55:56;101965.19;;;8.40;62.67
53960;BME280;39866;48.638;-2.020;2022-12-07T06:58:22;101967.84;;;8.43;62.61
53960;BME280;39866;48.638;-2.020;2022-12-07T07:00:48;101951.03;;;8.48;62.83
53960;BME280;39866;48.638;-2.020;2022-12-07T07:03:14;101961.66;;;8.48;62.86
53960;BME280;39866;48.638;-2.020;2022-12-07T07:05:40;101962.53;;;8.50;62.76
53960;BME280;39866;48.638;-2.020;2022-12-07T07:08:05;101959.88;;;8.53;63.25
53960;BME280;39866;48.638;-2.020;2022-12-07T07:10:30;101958.97;;;8.57;62.91
53960;BME280;39866;48.638;-2.020;2022-12-07T07:12:56;101964.28;;;8.63;63.07
53960;BME280;39866;48.638;-2.020;2022-12-07T07:15:21;101960.75;;;8.67;62.98
53960;BME280;39866;48.638;-2.020;2022-12-07T07:17:47;101964.28;;;8.69;63.40
53960;BME280;39866;48.638;-2.020;2022-12-07T07:20:12;101966.06;;;8.70;63.17
53960;BME280;39866;48.638;-2.020;2022-12-07T07:22:37;101958.09;;;8.70;62.93
53960;BME280;39866;48.638;-2.020;2022-12-07T07:25:03;101958.09;;;8.68;62.86
53960;BME280;39866;48.638;-2.020;2022-12-07T07:27:29;101962.50;;;8.65;63.29
53960;BME280;39866;48.638;-2.020;2022-12-07T07:29:54;101960.75;;;8.67;63.44
53960;BME280;39866;48.638;-2.020;2022-12-07T07:32:19;101959.88;;;8.66;63.54
53960;BME280;39866;48.638;-2.020;2022-12-07T07:34:46;101950.13;;;8.61;63.34
53960;BME280;39866;48.638;-2.020;2022-12-07T07:37:12;101956.31;;;8.67;63.31
53960;BME280;39866;48.638;-2.020;2022-12-07T07:39:37;101955.44;;;8.61;63.64
53960;BME280;39866;48.638;-2.020;2022-12-07T07:42:03;101967.81;;;8.60;63.89
53960;BME280;39866;48.638;-2.020;2022-12-07T07:44:29;101971.38;;;8.65;63.78
53960;BME280;39866;48.638;-2.020;2022-12-07T07:46:54;101972.25;;;8.75;63.61
53960;BME280;39866;48.638;-2.020;2022-12-07T07:49:19;101975.75;;;8.77;63.63
53960;BME280;39866;48.638;-2.020;2022-12-07T07:51:45;101969.59;;;8.74;63.67
53960;BME280;39866;48.638;-2.020;2022-12-07T07:54:10;101976.66;;;8.84;63.51
53960;BME280;39866;48.638;-2.020;2022-12-07T07:56:35;101983.72;;;8.88;63.40
53960;BME280;39866;48.638;-2.020;2022-12-07T07:59:01;101974.88;;;8.87;63.22
53960;BME280;39866;48.638;-2.020;2022-12-07T08:01:26;101981.09;;;8.86;63.48
53960;BME280;39866;48.638;-2.020;2022-12-07T08:03:52;101980.19;;;8.86;63.67
53960;BME280;39866;48.638;-2.020;2022-12-07T08:06:17;101980.19;;;8.87;63.45
53960;BME280;39866;48.638;-2.020;2022-12-07T08:08:42;101980.19;;;8.84;63.76
53960;BME280;39866;48.638;-2.020;2022-12-07T08:11:09;101978.41;;;8.80;63.65
53960;BME280;39866;48.638;-2.020;2022-12-07T08:13:35;101975.78;;;8.79;63.94
53960;BME280;39866;48.638;-2.020;2022-12-07T08:16:09;101976.63;;;8.88;63.51
53960;BME280;39866;48.638;-2.020;2022-12-07T08:18:36;101980.19;;;8.92;63.39
53960;BME280;39866;48.638;-2.020;2022-12-07T08:21:02;101975.78;;;8.83;63.50
53960;BME280;39866;48.638;-2.020;2022-12-07T08:23:28;101969.59;;;8.78;63.54
53960;BME280;39866;48.638;-2.020;2022-12-07T08:25:54;101979.31;;;8.76;63.29
53960;BME280;39866;48.638;-2.020;2022-12-07T08:28:19;101977.56;;;8.75;63.65
53960;BME280;39866;48.638;-2.020;2022-12-07T08:30:45;101978.44;;;8.73;63.67
53960;BME280;39866;48.638;-2.020;2022-12-07T08:33:10;101972.25;;;8.66;63.99
53960;BME280;39866;48.638;-2.020;2022-12-07T08:35:36;101973.16;;;8.62;64.08
53960;BME280;39866;48.638;-2.020;2022-12-07T08:38:02;101976.66;;;8.61;64.08
53960;BME280;39866;48.638;-2.020;2022-12-07T08:40:28;101974.91;;;8.66;63.71
53960;BME280;39866;48.638;-2.020;2022-12-07T08:42:54;101974.91;;;8.72;63.72
53960;BME280;39866;48.638;-2.020;2022-12-07T08:45:21;101977.56;;;8.75;63.33
53960;BME280;39866;48.638;-2.020;2022-12-07T08:47:52;101978.44;;;8.79;63.20
53960;BME280;39866;48.638;-2.020;2022-12-07T08:50:19;101976.66;;;8.75;63.41
53960;BME280;39866;48.638;-2.020;2022-12-07T08:52:49;101967.81;;;8.74;63.66
53960;BME280;39866;48.638;-2.020;2022-12-07T08:55:15;101969.59;;;8.64;63.52
53960;BME280;39866;48.638;-2.020;2022-12-07T08:57:41;101969.63;;;8.61;63.46
53960;BME280;39866;48.638;-2.020;2022-12-07T09:00:07;101961.66;;;8.58;63.77
53960;BME280;39866;48.638;-2.020;2022-12-07T09:02:32;101958.13;;;8.53;64.42
53960;BME280;39866;48.638;-2.020;2022-12-07T09:04:58;101962.53;;;8.59;64.15
53960;BME280;39866;48.638;-2.020;2022-12-07T09:07:24;101961.63;;;8.67;64.24
53960;BME280;39866;48.638;-2.020;2022-12-07T09:09:50;101964.28;;;8.71;64.21
53960;BME280;39866;48.638;-2.020;2022-12-07T09:12:15;101969.59;;;8.78;64.19
53960;BME280;39866;48.638;-2.020;2022-12-07T09:14:40;101979.28;;;8.85;63.77
53960;BME280;39866;48.638;-2.020;2022-12-07T09:17:11;101980.16;;;8.89;63.52
53960;BME280;39866;48.638;-2.020;2022-12-07T09:19:37;101979.28;;;8.93;63.65
53960;BME280;39866;48.638;-2.020;2022-12-07T09:22:03;101974.88;;;8.90;63.54
53960;BME280;39866;48.638;-2.020;2022-12-07T09:24:30;101979.31;;;8.87;64.07
53960;BME280;39866;48.638;-2.020;2022-12-07T09:26:56;101984.59;;;8.91;63.75
53960;BME280;39866;48.638;-2.020;2022-12-07T09:29:22;101985.53;;;8.86;64.18
53960;BME280;39866;48.638;-2.020;2022-12-07T09:31:47;101984.59;;;8.96;63.85
53960;BME280;39866;48.638;-2.020;2022-12-07T09:34:12;101981.94;;;9.02;63.41
53960;BME280;39866;48.638;-2.020;2022-12-07T09:36:38;101985.44;;;9.06;63.32
53960;BME280;39866;48.638;-2.020;2022-12-07T09:39:03;101992.53;;;9.08;63.22
53960;BME280;39866;48.638;-2.020;2022-12-07T09:41:31;101980.16;;;9.07;63.67
53960;BME280;39866;48.638;-2.020;2022-12-07T09:44:05;101981.91;;;9.11;63.23
53960;BME280;39866;48.638;-2.020;2022-12-07T09:46:36;101978.38;;;9.11;63.32
53960;BME280;39866;48.638;-2.020;2022-12-07T09:49:02;101982.78;;;9.13;63.33
53960;BME280;39866;48.638;-2.020;2022-12-07T09:51:28;101978.38;;;9.11;63.88
53960;BME280;39866;48.638;-2.020;2022-12-07T09:53:55;101980.13;;;9.12;64.35
53960;BME280;39866;48.638;-2.020;2022-12-07T09:56:22;101982.81;;;9.10;64.22
53960;BME280;39866;48.638;-2.020;2022-12-07T09:58:50;101977.47;;;9.13;64.55
53960;BME280;39866;48.638;-2.020;2022-12-07T10:01:19;101982.78;;;9.16;64.30
53960;BME280;39866;48.638;-2.020;2022-12-07T10:03:50;101968.59;;;9.13;64.33
53960;BME280;39866;48.638;-2.020;2022-12-07T10:06:16;101978.34;;;9.23;64.08
53960;BME280;39866;48.638;-2.020;2022-12-07T10:08:41;101981.00;;;9.23;64.34
53960;BME280;39866;48.638;-2.020;2022-12-07T10:11:08;101969.47;;;9.24;64.41
53960;BME280;39866;48.638;-2.020;2022-12-07T10:16:04;101959.72;;;9.31;64.01
53960;BME280;39866;48.638;-2.020;2022-12-07T10:18:32;101962.31;;;9.34;64.21
53960;BME280;39866;48.638;-2.020;2022-12-07T10:21:12;101968.53;;;9.37;63.76
53960;BME280;39866;48.638;-2.020;2022-12-07T10:24:05;101971.19;;;9.39;63.72
53960;BME280;39866;48.638;-2.020;2022-12-07T10:29:46;101964.97;;;9.40;63.50
53960;BME280;39866;48.638;-2.020;2022-12-07T10:34:41;101952.53;;;9.45;63.50
53960;BME280;39866;48.638;-2.020;2022-12-07T10:39:49;101938.34;;;9.48;64.20
53960;BME280;39866;48.638;-2.020;2022-12-07T10:42:26;101939.22;;;9.50;63.96
53960;BME280;39866;48.638;-2.020;2022-12-07T10:47:51;101930.34;;;9.54;64.27
53960;BME280;39866;48.638;-2.020;2022-12-07T10:53:24;101930.34;;;9.54;64.68
53960;BME280;39866;48.638;-2.020;2022-12-07T11:01:45;101923.19;;;9.62;64.68
53960;BME280;39866;48.638;-2.020;2022-12-07T11:07:07;101927.63;;;9.64;64.81
53960;BME280;39866;48.638;-2.020;2022-12-07T11:12:16;101916.06;;;9.70;65.21
53960;BME280;39866;48.638;-2.020;2022-12-07T11:23:06;101899.13;;;9.83;64.73
53960;BME280;39866;48.638;-2.020;2022-12-07T11:25:50;101889.38;;;9.85;64.65
53960;BME280;39866;48.638;-2.020;2022-12-07T11:33:33;101895.56;;;9.86;64.36
53960;BME280;39866;48.638;-2.020;2022-12-07T11:38:45;101884.03;;;9.85;64.36
53960;BME280;39866;48.638;-2.020;2022-12-07T11:41:14;101889.34;;;9.88;64.49
53960;BME280;39866;48.638;-2.020;2022-12-07T11:44:08;101883.13;;;9.86;64.34
53960;BME280;39866;48.638;-2.020;2022-12-07T11:46:47;101888.47;;;9.86;64.66
53960;BME280;39866;48.638;-2.020;2022-12-07T11:52:43;101879.56;;;9.87;64.53
53960;BME280;39866;48.638;-2.020;2022-12-07T11:55:26;101872.47;;;9.89;64.70
53960;BME280;39866;48.638;-2.020;2022-12-07T11:58:04;101870.72;;;9.88;64.73
53960;BME280;39866;48.638;-2.020;2022-12-07T12:00:30;101875.13;;;9.92;64.81
53960;BME280;39866;48.638;-2.020;2022-12-07T12:03:01;101874.22;;;9.97;64.93
53960;BME280;39866;48.638;-2.020;2022-12-07T12:05:29;101869.75;;;9.99;64.93
53960;BME280;39866;48.638;-2.020;2022-12-07T12:08:16;101873.31;;;9.98;64.90
53960;BME280;39866;48.638;-2.020;2022-12-07T12:13:51;101857.31;;;9.99;65.16
53960;BME280;39866;48.638;-2.020;2022-12-07T12:19:36;101856.38;;;10.06;64.64
53960;BME280;39866;48.638;-2.020;2022-12-07T12:22:23;101850.22;;;10.00;65.04
53960;BME280;39866;48.638;-2.020;2022-12-07T12:24:53;101846.84;;;9.79;64.90
53960;BME280;39866;48.638;-2.020;2022-12-07T12:27:34;101854.00;;;9.70;65.37
53960;BME280;39866;48.638;-2.020;2022-12-07T12:30:02;101851.41;;;9.62;65.23
53960;BME280;39866;48.638;-2.020;2022-12-07T12:32:32;101842.41;;;9.78;65.14
53960;BME280;39866;48.638;-2.020;2022-12-07T12:37:46;101836.19;;;9.82;65.61
53960;BME280;39866;48.638;-2.020;2022-12-07T12:42:50;101830.94;;;9.73;65.23
53960;BME280;39866;48.638;-2.020;2022-12-07T12:45:29;101833.59;;;9.76;65.32
53960;BME280;39866;48.638;-2.020;2022-12-07T12:48:01;101821.09;;;9.84;65.24
53960;BME280;39866;48.638;-2.020;2022-12-07T12:50:33;101824.63;;;9.88;65.21
53960;BME280;39866;48.638;-2.020;2022-12-07T12:53:25;101823.59;;;10.03;64.79
53960;BME280;39866;48.638;-2.020;2022-12-07T12:59:29;101821.78;;;10.06;64.94
53960;BME280;39866;48.638;-2.020;2022-12-07T13:15:44;101792.38;;;10.20;64.86
53960;BME280;39866;48.638;-2.020;2022-12-07T13:20:56;101795.88;;;10.24;65.27
53960;BME280;39866;48.638;-2.020;2022-12-07T13:31:44;101771.31;;;9.97;66.40
53960;BME280;39866;48.638;-2.020;2022-12-07T13:34:29;101777.31;;;10.17;66.30
53960;BME280;39866;48.638;-2.020;2022-12-07T13:36:55;101778.13;;;10.27;66.16
53960;BME280;39866;48.638;-2.020;2022-12-07T13:39:23;101770.28;;;10.13;66.42
53960;BME280;39866;48.638;-2.020;2022-12-07T13:41:51;101756.97;;;10.12;66.37
53960;BME280;39866;48.638;-2.020;2022-12-07T13:44:17;101771.19;;;10.12;66.67
53960;BME280;39866;48.638;-2.020;2022-12-07T13:46:51;101756.91;;;10.18;66.60
53960;BME280;39866;48.638;-2.020;2022-12-07T13:49:23;101760.28;;;10.35;66.19
53960;BME280;39866;48.638;-2.020;2022-12-07T13:51:49;101766.44;;;10.40;66.11
53960;BME280;39866;48.638;-2.020;2022-12-07T13:54:15;101750.41;;;10.47;65.66
53960;BME280;39866;48.638;-2.020;2022-12-07T13:56:41;101743.28;;;10.49;65.88
53960;BME280;39866;48.638;-2.020;2022-12-07T13:59:19;101748.44;;;10.62;65.57
53960;BME280;39866;48.638;-2.020;2022-12-07T14:01:46;101751.22;;;10.52;65.20
53960;BME280;39866;48.638;-2.020;2022-12-07T14:04:36;101739.88;;;10.37;65.47
53960;BME280;39866;48.638;-2.020;2022-12-07T14:12:21;101734.34;;;10.53;65.67
53960;BME280;39866;48.638;-2.020;2022-12-07T14:14:47;101731.69;;;10.54;65.50
53960;BME280;39866;48.638;-2.020;2022-12-07T14:17:22;101730.75;;;10.58;65.81
53960;BME280;39866;48.638;-2.020;2022-12-07T14:19:53;101726.38;;;10.51;65.95
53960;BME280;39866;48.638;-2.020;2022-12-07T14:24:49;101722.78;;;10.55;65.69
53960;BME280;39866;48.638;-2.020;2022-12-07T14:27:22;101719.34;;;10.47;65.66
53960;BME280;39866;48.638;-2.020;2022-12-07T14:29:48;101718.34;;;10.56;65.67
53960;BME280;39866;48.638;-2.020;2022-12-07T14:32:26;101719.03;;;10.69;65.31
53960;BME280;39866;48.638;-2.020;2022-12-07T14:34:56;101717.34;;;10.66;65.39
53960;BME280;39866;48.638;-2.020;2022-12-07T14:37:23;101720.94;;;10.62;65.32
53960;BME280;39866;48.638;-2.020;2022-12-07T14:39:48;101720.78;;;10.73;65.31
53960;BME280;39866;48.638;-2.020;2022-12-07T14:42:14;101718.97;;;10.75;64.94
53960;BME280;39866;48.638;-2.020;2022-12-07T14:44:39;101711.00;;;10.73;64.62
53960;BME280;39866;48.638;-2.020;2022-12-07T14:47:05;101710.91;;;10.79;64.18
53960;BME280;39866;48.638;-2.020;2022-12-07T14:49:30;101705.44;;;10.88;63.76